createdAt,value
2023-01-25T00:00:39.430Z,1.36
2023-01-25T00:06:01.628Z,1.35
2023-01-25T00:11:04.974Z,1.29
2023-01-25T00:16:07.992Z,1.32
2023-01-25T00:21:24.668Z,1.33
2023-01-25T00:26:30.733Z,1.24
2023-01-25T00:31:33.659Z,1.18
2023-01-25T00:36:40.505Z,1.22
2023-01-25T00:41:43.946Z,1.19
2023-01-25T00:46:46.793Z,1.15
2023-01-25T00:51:50.876Z,1.12
2023-01-25T00:56:54.529Z,1.07
2023-01-25T01:01:57.380Z,1.05
2023-01-25T01:07:00.182Z,1.01
2023-01-25T01:12:03.064Z,1.02
2023-01-25T01:17:05.877Z,0.99
2023-01-25T01:22:08.645Z,0.97
2023-01-25T01:27:11.391Z,0.96
2023-01-25T01:32:14.404Z,0.92
2023-01-25T01:37:17.235Z,0.87
2023-01-25T01:42:20.004Z,0.89
2023-01-25T01:47:47.103Z,0.86
2023-01-25T01:52:49.847Z,0.77
2023-01-25T01:57:57.963Z,0.72
2023-01-25T02:03:00.865Z,0.72
2023-01-25T02:08:04.176Z,0.65
2023-01-25T02:13:06.998Z,0.63
2023-01-25T02:18:10.762Z,0.55
2023-01-25T02:23:43.402Z,0.53
2023-01-25T02:29:02.451Z,0.53
2023-01-25T02:34:05.330Z,0.49
2023-01-25T02:39:12.310Z,0.40
2023-01-25T02:44:29.726Z,0.35
2023-01-25T02:49:37.648Z,0.39
2023-01-25T02:54:40.454Z,0.43
2023-01-25T02:59:43.553Z,0.42
2023-01-25T03:04:46.380Z,0.41
2023-01-25T03:09:49.204Z,0.34
2023-01-25T03:14:52.331Z,0.23
2023-01-25T03:19:55.456Z,0.16
2023-01-25T03:24:58.393Z,0.10
2023-01-25T03:30:01.179Z,0.07
2023-01-25T03:35:04.908Z,-0.00
2023-01-25T03:40:11.795Z,-0.03
2023-01-25T03:45:14.680Z,-0.09
2023-01-25T03:50:17.512Z,-0.12
2023-01-25T03:55:20.445Z,-0.18
2023-01-25T04:00:23.310Z,-0.13
2023-01-25T04:05:26.075Z,-0.16
2023-01-25T04:10:28.839Z,-0.27
2023-01-25T04:15:31.726Z,-0.27
2023-01-25T04:20:34.607Z,-0.24
2023-01-25T04:25:37.753Z,-0.21
2023-01-25T04:30:40.512Z,-0.30
2023-01-25T04:35:43.732Z,-0.26
2023-01-25T04:40:46.591Z,-0.26
2023-01-25T04:45:49.448Z,-0.27
2023-01-25T04:50:52.209Z,-0.34
2023-01-25T04:55:54.935Z,-0.44
2023-01-25T05:01:02.698Z,-0.51
2023-01-25T05:06:05.798Z,-0.54
2023-01-25T05:11:08.622Z,-0.54
2023-01-25T05:16:11.368Z,-0.54
2023-01-25T05:21:33.473Z,-0.52
2023-01-25T05:26:55.407Z,-0.53
2023-01-25T05:31:59.067Z,-0.53
2023-01-25T05:37:02.336Z,-0.50
2023-01-25T05:42:14.799Z,-0.50
2023-01-25T05:47:17.876Z,-0.51
2023-01-25T05:52:20.600Z,-0.58
2023-01-25T05:57:23.368Z,-0.67
2023-01-25T06:02:26.363Z,-0.69
2023-01-25T06:07:29.255Z,-0.65
2023-01-25T06:12:33.202Z,-0.63
2023-01-25T06:17:35.975Z,-0.63
2023-01-25T06:22:38.911Z,-0.73
2023-01-25T06:27:41.661Z,-0.79
2023-01-25T06:32:44.412Z,-0.77
2023-01-25T06:37:47.513Z,-0.75
2023-01-25T06:42:52.009Z,-0.75
2023-01-25T06:47:54.784Z,-0.76
2023-01-25T06:52:57.524Z,-0.78
2023-01-25T06:58:03.421Z,-0.83
2023-01-25T07:03:06.307Z,-0.90
2023-01-25T07:08:09.116Z,-0.90
2023-01-25T07:13:11.917Z,-0.86
2023-01-25T07:18:16.527Z,-0.85
2023-01-25T07:23:20.262Z,-0.91
2023-01-25T07:28:23.047Z,-0.88
2023-01-25T07:33:25.861Z,-0.83
2023-01-25T07:38:28.653Z,-0.81
2023-01-25T07:43:31.530Z,-0.88
2023-01-25T07:48:34.401Z,-0.90
2023-01-25T07:53:46.242Z,-0.84
2023-01-25T07:58:49.590Z,-0.76
2023-01-25T08:03:52.786Z,-0.75
2023-01-25T08:08:55.599Z,-0.68
2023-01-25T08:13:58.500Z,-0.66
2023-01-25T08:19:03.190Z,-0.70
2023-01-25T08:24:06.974Z,-0.77
2023-01-25T08:29:11.697Z,-0.86
2023-01-25T08:34:15.178Z,-0.83
2023-01-25T08:39:18.407Z,-0.75
2023-01-25T08:44:24.083Z,-0.82
2023-01-25T08:49:27.645Z,-0.73
2023-01-25T08:54:30.693Z,-0.65
2023-01-25T08:59:33.554Z,-0.57
2023-01-25T09:04:36.431Z,-0.68
2023-01-25T09:09:39.223Z,-0.74
2023-01-25T09:14:42.444Z,-0.82
2023-01-25T09:19:45.905Z,-0.74
2023-01-25T09:24:52.387Z,-0.66
2023-01-25T09:30:13.644Z,-0.61
2023-01-25T09:35:19.218Z,-0.61
2023-01-25T09:40:23.377Z,-0.60
2023-01-25T09:45:36.652Z,-0.48
2023-01-25T09:51:00.382Z,-0.49
2023-01-25T09:56:23.867Z,-0.48
2023-01-25T10:01:39.080Z,-0.49
2023-01-25T10:06:54.991Z,-0.50
2023-01-25T10:12:19.882Z,-0.57
2023-01-25T10:17:41.999Z,-0.73
2023-01-25T10:22:50.848Z,-0.66
2023-01-25T10:28:01.854Z,-0.63
2023-01-25T10:33:16.061Z,-0.61
2023-01-25T10:38:27.241Z,-0.59
2023-01-25T10:43:30.197Z,-0.56
2023-01-25T10:48:35.583Z,-0.52
2023-01-25T10:53:44.267Z,-0.48
2023-01-25T10:58:50.303Z,-0.46
2023-01-25T11:03:53.613Z,-0.50
2023-01-25T11:08:56.556Z,-0.52
2023-01-25T11:13:59.323Z,-0.58
2023-01-25T11:19:03.050Z,-0.57
2023-01-25T11:24:09.342Z,-0.56
2023-01-25T11:29:24.841Z,-0.52
2023-01-25T11:34:28.588Z,-0.43
2023-01-25T11:40:15.934Z,-0.45
2023-01-25T11:45:37.198Z,-0.50
2023-01-25T11:50:54.120Z,-0.45
2023-01-25T11:56:26.327Z,-0.31
2023-01-25T12:01:40.925Z,-0.27
2023-01-25T12:06:55.871Z,-0.29
2023-01-25T12:12:10.075Z,-0.33
2023-01-25T12:17:40.417Z,-0.32
2023-01-25T12:23:12.910Z,-0.30
2023-01-25T12:28:54.653Z,-0.35
2023-01-25T12:34:04.021Z,-0.31
2023-01-25T12:39:19.573Z,-0.30
2023-01-25T12:44:44.423Z,-0.27
2023-01-25T12:49:59.737Z,-0.35
2023-01-25T12:55:06.049Z,-0.36
2023-01-25T13:00:25.917Z,-0.41
2023-01-25T13:06:02.117Z,-0.43
2023-01-25T13:11:17.252Z,-0.38
2023-01-25T13:16:30.252Z,-0.32
2023-01-25T13:21:45.258Z,-0.30
2023-01-25T13:26:55.226Z,-0.25
2023-01-25T13:31:59.513Z,-0.17
2023-01-25T13:37:13.513Z,-0.05
2023-01-25T13:42:33.498Z,-0.06
2023-01-25T13:47:39.823Z,-0.12
2023-01-25T13:53:15.100Z,-0.15
2023-01-25T13:58:27.743Z,-0.18
2023-01-25T14:03:35.187Z,-0.21
2023-01-25T14:08:39.445Z,-0.22
2023-01-25T14:13:58.556Z,-0.13
2023-01-25T14:19:24.388Z,-0.21
2023-01-25T14:24:27.318Z,-0.23
2023-01-25T14:29:33.210Z,-0.23
2023-01-25T14:34:36.470Z,-0.23
2023-01-25T14:39:39.239Z,-0.24
2023-01-25T14:44:42.171Z,-0.22
2023-01-25T14:49:45.014Z,-0.23
2023-01-25T14:54:56.061Z,-0.26
2023-01-25T14:59:58.831Z,-0.21
2023-01-25T15:05:14.607Z,-0.17
2023-01-25T15:10:57.739Z,-0.13
2023-01-25T15:16:02.811Z,-0.17
2023-01-25T15:21:05.705Z,-0.20
2023-01-25T15:26:24.566Z,-0.18
2023-01-25T15:31:35.362Z,-0.17
2023-01-25T15:36:38.158Z,-0.22
2023-01-25T15:41:41.361Z,-0.25
2023-01-25T15:46:46.486Z,-0.29
2023-01-25T15:51:49.307Z,-0.29
2023-01-25T15:56:55.472Z,-0.28
2023-01-25T16:01:58.304Z,-0.29
2023-01-25T16:07:03.181Z,-0.29
2023-01-25T16:12:06.209Z,-0.25
2023-01-25T16:17:20.170Z,-0.26
2023-01-25T16:22:22.893Z,-0.30
2023-01-25T16:27:26.883Z,-0.31
2023-01-25T16:32:29.749Z,-0.27
2023-01-25T16:37:32.624Z,-0.27
2023-01-25T16:42:35.355Z,-0.21
2023-01-25T16:47:38.218Z,-0.21
2023-01-25T16:52:43.484Z,-0.17
2023-01-25T16:57:50.233Z,-0.18
2023-01-25T17:02:59.120Z,-0.22
2023-01-25T17:08:02.580Z,-0.16
2023-01-25T17:13:06.157Z,-0.13
2023-01-25T17:18:08.945Z,-0.08
2023-01-25T17:23:11.860Z,-0.08
2023-01-25T17:28:14.610Z,-0.11
2023-01-25T17:33:19.165Z,-0.14
2023-01-25T17:38:23.353Z,-0.12
2023-01-25T17:43:28.146Z,-0.04
2023-01-25T17:48:30.912Z,-0.13
2023-01-25T17:53:33.639Z,-0.19
2023-01-25T17:58:37.457Z,-0.16
2023-01-25T18:03:40.533Z,-0.18
2023-01-25T18:08:45.967Z,-0.14
2023-01-25T18:13:51.158Z,-0.18
2023-01-25T18:18:55.505Z,-0.24
2023-01-25T18:24:26.110Z,-0.21
2023-01-25T18:30:02.100Z,-0.18
2023-01-25T18:35:05.574Z,-0.23
2023-01-25T18:40:10.187Z,-0.17
2023-01-25T18:45:13.295Z,-0.11
2023-01-25T18:50:16.518Z,-0.06
2023-01-25T18:55:20.189Z,-0.05
2023-01-25T19:00:23.170Z,-0.11
2023-01-25T19:05:26.689Z,-0.14
2023-01-25T19:10:29.452Z,-0.15
2023-01-25T19:15:32.218Z,-0.16
2023-01-25T19:20:35.028Z,-0.21
2023-01-25T19:25:37.826Z,-0.26
2023-01-25T19:30:40.718Z,-0.24
2023-01-25T19:35:43.508Z,-0.24
2023-01-25T19:40:46.236Z,-0.27
2023-01-25T19:45:49.104Z,-0.27
2023-01-25T19:50:51.866Z,-0.26
2023-01-25T19:55:54.654Z,-0.26
2023-01-25T20:01:06.340Z,-0.34
2023-01-25T20:06:10.202Z,-0.32
2023-01-25T20:11:16.544Z,-0.28
2023-01-25T20:16:19.596Z,-0.24
2023-01-25T20:21:24.113Z,-0.26
2023-01-25T20:26:29.739Z,-0.26
2023-01-25T20:31:34.314Z,-0.20
2023-01-25T20:36:37.138Z,-0.23
2023-01-25T20:41:40.119Z,-0.23
2023-01-25T20:46:43.413Z,-0.18
2023-01-25T20:51:46.867Z,-0.19
2023-01-25T20:56:50.539Z,-0.17
2023-01-25T21:01:53.466Z,-0.18
2023-01-25T21:06:56.210Z,-0.17
2023-01-25T21:11:58.968Z,-0.11
2023-01-25T21:17:01.768Z,-0.07
2023-01-25T21:22:04.671Z,0.01
2023-01-25T21:27:08.825Z,0.10
2023-01-25T21:32:11.617Z,0.08
2023-01-25T21:37:14.401Z,0.03
2023-01-25T21:42:17.193Z,0.06
2023-01-25T21:47:29.840Z,0.13
2023-01-25T21:52:36.334Z,0.15
2023-01-25T21:57:46.248Z,0.13
2023-01-25T22:02:51.740Z,0.12
2023-01-25T22:07:54.659Z,0.16
2023-01-25T22:12:57.432Z,0.18
2023-01-25T22:18:00.268Z,0.22
2023-01-25T22:23:03.063Z,0.22
2023-01-25T22:28:07.463Z,0.26
2023-01-25T22:33:10.378Z,0.31
2023-01-25T22:38:13.421Z,0.30
2023-01-25T22:43:16.205Z,0.26
2023-01-25T22:48:19.614Z,0.26
2023-01-25T22:53:22.345Z,0.28
2023-01-25T22:58:25.087Z,0.25
2023-01-25T23:03:28.332Z,0.17
2023-01-25T23:08:33.676Z,0.18
2023-01-25T23:13:37.839Z,0.20
2023-01-25T23:18:49.929Z,0.22
2023-01-25T23:23:54.576Z,0.21
2023-01-25T23:28:58.020Z,0.23
2023-01-25T23:34:02.355Z,0.24
2023-01-25T23:39:05.952Z,0.21
2023-01-25T23:44:09.874Z,0.16
2023-01-25T23:49:12.604Z,0.21
2023-01-25T23:54:15.609Z,0.26
2023-01-25T23:59:19.205Z,0.30
